Time;durP1;ratioP1;P1;durP2;ratioP2;P2;SDS_P1;SDS_P2;PMS_P1;PMS_P2;Temp;Humidity;BMP_temperature;BMP_pressure;BME280_temperature;BME280_humidity;BME280_pressure;Samples;Min_cycle;Max_cycle;Signal;HPM_P1;HPM_P2
2022/01/29 00:00:43;;;;;;;1.93;1.80;;;5.70;99.90;;;;;;5042372;28;20222;-77
2022/01/29 00:03:10;;;;;;;4.73;1.43;;;5.70;99.90;;;;;;5053318;28;20205;-77
2022/01/29 00:05:35;;;;;;;1.80;1.70;;;5.70;99.90;;;;;;5053818;28;20564;-77
2022/01/29 00:08:02;;;;;;;1.27;1.17;;;5.80;99.90;;;;;;5053443;28;20189;-77
2022/01/29 00:10:28;;;;;;;1.37;1.27;;;5.80;99.90;;;;;;5044514;28;20260;-77
2022/01/29 00:12:53;;;;;;;1.50;1.43;;;5.80;99.90;;;;;;5048471;28;20271;-76
2022/01/29 00:15:20;;;;;;;0.60;0.60;;;5.80;99.90;;;;;;5035425;28;20231;-76
2022/01/29 00:17:46;;;;;;;1.53;1.50;;;5.90;99.90;;;;;;5053429;28;20173;-75
2022/01/29 00:20:12;;;;;;;3.50;2.30;;;5.90;99.90;;;;;;5035323;28;20606;-76
2022/01/29 00:22:37;;;;;;;0.87;0.87;;;6.00;99.90;;;;;;5034997;28;20192;-75
2022/01/29 00:25:03;;;;;;;3.23;1.30;;;6.00;99.90;;;;;;5026530;28;20730;-76
2022/01/29 00:27:33;;;;;;;1.30;1.20;;;6.10;99.90;;;;;;5030604;28;20239;-76
2022/01/29 00:30:03;;;;;;;1.70;1.60;;;6.10;99.90;;;;;;5053244;28;20279;-76
2022/01/29 00:32:29;;;;;;;3.97;3.60;;;6.10;99.90;;;;;;5052298;28;20240;-76
2022/01/29 00:34:55;;;;;;;3.07;2.10;;;6.10;99.90;;;;;;5034795;28;20201;-75
2022/01/29 00:37:20;;;;;;;4.50;3.57;;;6.10;99.90;;;;;;5035024;28;20759;-76
2022/01/29 00:39:46;;;;;;;3.37;2.13;;;6.10;99.90;;;;;;5034992;28;20185;-76
2022/01/29 00:42:11;;;;;;;6.00;2.30;;;6.10;99.90;;;;;;5052410;28;20648;-76
2022/01/29 00:44:37;;;;;;;3.00;2.80;;;6.10;99.90;;;;;;5052491;28;20212;-75
2022/01/29 00:47:03;;;;;;;4.80;3.80;;;6.10;99.90;;;;;;5052592;28;20544;-76
2022/01/29 00:49:28;;;;;;;4.53;2.77;;;6.20;99.90;;;;;;5052398;28;20314;-77
2022/01/29 00:51:54;;;;;;;1.43;1.33;;;6.20;99.90;;;;;;5036285;28;20205;-75
2022/01/29 00:54:19;;;;;;;1.23;1.10;;;6.20;99.90;;;;;;5041885;28;20694;-74
2022/01/29 00:56:45;;;;;;;1.93;1.80;;;6.20;99.90;;;;;;5034808;28;20652;-74
2022/01/29 00:59:10;;;;;;;3.97;2.50;;;6.20;99.90;;;;;;5034748;28;20250;-74
2022/01/29 01:01:36;;;;;;;3.10;1.97;;;6.20;99.90;;;;;;5052065;28;20187;-74
2022/01/29 01:04:02;;;;;;;4.10;3.67;;;6.20;99.90;;;;;;5034580;28;20227;-74
2022/01/29 01:06:27;;;;;;;0.87;0.87;;;6.30;99.90;;;;;;5052405;28;20549;-74
2022/01/29 01:08:53;;;;;;;5.40;2.17;;;6.30;99.90;;;;;;5034572;28;20533;-75
2022/01/29 01:11:18;;;;;;;4.57;3.97;;;6.30;99.90;;;;;;5051930;28;20568;-74
2022/01/29 01:13:44;;;;;;;2.80;2.43;;;6.30;99.90;;;;;;5052169;28;20609;-74
2022/01/29 01:16:09;;;;;;;1.80;1.70;;;6.30;99.90;;;;;;5034203;28;20196;-74
2022/01/29 01:18:35;;;;;;;2.57;2.00;;;6.30;99.90;;;;;;5052264;28;20181;-75
2022/01/29 01:21:00;;;;;;;3.33;1.60;;;6.30;99.90;;;;;;5052165;28;20239;-75
2022/01/29 01:23:26;;;;;;;3.03;2.83;;;6.30;99.90;;;;;;5051811;28;20216;-74
2022/01/29 01:25:51;;;;;;;3.27;3.07;;;6.30;99.90;;;;;;5038756;28;20186;-75
2022/01/29 01:28:17;;;;;;;1.70;1.60;;;6.30;99.90;;;;;;5034134;28;20245;-76
2022/01/29 01:30:43;;;;;;;1.27;1.27;;;6.20;99.90;;;;;;5038329;28;20861;-77
2022/01/29 01:33:08;;;;;;;5.83;5.33;;;6.30;99.90;;;;;;5051858;28;20211;-77
2022/01/29 01:35:40;;;;;;;1.73;1.63;;;6.30;99.90;;;;;;5034328;28;20189;-77
2022/01/29 01:38:13;;;;;;;10.53;3.73;;;6.30;99.90;;;;;;5034064;28;20181;-77
2022/01/29 01:40:41;;;;;;;3.30;1.90;;;6.30;99.90;;;;;;5051881;28;20215;-77
2022/01/29 01:43:07;;;;;;;4.73;4.00;;;6.30;99.90;;;;;;5051142;28;20231;-75
2022/01/29 01:45:33;;;;;;;2.50;2.30;;;6.30;99.90;;;;;;5051772;28;20185;-75
2022/01/29 01:47:59;;;;;;;1.40;1.23;;;6.30;99.90;;;;;;5033840;28;20433;-75
2022/01/29 01:50:24;;;;;;;2.10;1.93;;;6.30;99.90;;;;;;5051563;28;20203;-75
2022/01/29 01:52:51;;;;;;;0.93;0.93;;;6.20;99.90;;;;;;5051263;28;20181;-75
2022/01/29 01:55:17;;;;;;;4.17;3.23;;;6.30;99.90;;;;;;5051517;28;20185;-75
2022/01/29 01:57:43;;;;;;;2.13;1.77;;;6.20;99.90;;;;;;5051943;28;20177;-75
2022/01/29 02:00:10;;;;;;;2.67;2.03;;;6.30;99.90;;;;;;5051636;28;20250;-74
2022/01/29 02:02:36;;;;;;;5.20;4.70;;;6.30;99.90;;;;;;5050711;28;20188;-74
2022/01/29 02:05:02;;;;;;;6.83;3.87;;;6.30;99.90;;;;;;5051461;28;20300;-75
2022/01/29 02:07:29;;;;;;;3.97;3.70;;;6.30;99.90;;;;;;5033607;28;20707;-75
2022/01/29 02:09:54;;;;;;;7.80;6.10;;;6.30;99.90;;;;;;5033470;28;20216;-75
2022/01/29 02:12:20;;;;;;;13.17;3.93;;;6.30;99.90;;;;;;5050846;28;20229;-75
2022/01/29 02:14:46;;;;;;;4.10;3.40;;;6.30;99.90;;;;;;5051076;28;20193;-75
2022/01/29 02:17:12;;;;;;;2.40;1.87;;;6.30;99.90;;;;;;5051290;28;20188;-74
2022/01/29 02:19:37;;;;;;;4.33;1.83;;;6.40;99.90;;;;;;5051189;28;20259;-75
2022/01/29 02:22:04;;;;;;;2.30;2.20;;;6.40;99.90;;;;;;5051079;28;20188;-75
2022/01/29 02:24:30;;;;;;;3.37;2.37;;;6.30;99.90;;;;;;5046528;28;20202;-75
2022/01/29 02:26:56;;;;;;;2.93;2.33;;;6.40;99.90;;;;;;5024071;28;20224;-75
2022/01/29 02:29:22;;;;;;;1.67;1.57;;;6.40;99.90;;;;;;5051324;28;20274;-74
2022/01/29 02:32:05;;;;;;;2.00;1.90;;;6.40;99.90;;;;;;5039987;28;20210;-75
2022/01/29 02:34:31;;;;;;;6.73;3.47;;;6.40;99.90;;;;;;5033339;28;20689;-75
2022/01/29 02:36:57;;;;;;;4.33;2.43;;;6.40;99.90;;;;;;5033253;28;20212;-74
2022/01/29 02:39:22;;;;;;;2.67;2.27;;;6.40;99.90;;;;;;5051396;28;20276;-74
2022/01/29 02:41:48;;;;;;;2.93;2.73;;;6.40;99.90;;;;;;5050684;28;20188;-75
2022/01/29 02:44:20;;;;;;;2.87;2.27;;;6.40;99.90;;;;;;5051104;28;20718;-74
2022/01/29 02:46:57;;;;;;;3.07;2.53;;;6.40;99.90;;;;;;5033204;28;20193;-74
2022/01/29 02:49:26;;;;;;;3.80;3.60;;;6.40;99.90;;;;;;5051049;28;20188;-74
2022/01/29 02:51:57;;;;;;;3.40;3.10;;;6.40;99.90;;;;;;5050350;28;20211;-75
2022/01/29 02:54:24;;;;;;;2.30;2.13;;;6.40;99.90;;;;;;5050980;28;20255;-75
2022/01/29 02:56:50;;;;;;;5.17;2.90;;;6.30;99.90;;;;;;5033007;28;20181;-75
2022/01/29 02:59:16;;;;;;;4.37;3.97;;;6.30;99.90;;;;;;5050917;28;20181;-74
2022/01/29 03:01:42;;;;;;;4.63;3.70;;;6.30;99.90;;;;;;5050370;28;20220;-76
2022/01/29 03:04:08;;;;;;;1.43;1.43;;;6.40;99.90;;;;;;5040633;28;20637;-75
2022/01/29 03:06:35;;;;;;;2.10;1.10;;;6.40;99.90;;;;;;5047902;28;20192;-76
2022/01/29 03:09:01;;;;;;;3.17;2.60;;;6.40;99.90;;;;;;5050744;28;20185;-76
2022/01/29 03:11:26;;;;;;;2.80;2.60;;;6.40;99.90;;;;;;5050380;28;20244;-76
2022/01/29 03:13:52;;;;;;;1.50;1.50;;;6.40;99.90;;;;;;5052074;28;20687;-77
2022/01/29 03:16:18;;;;;;;2.20;2.00;;;6.40;99.90;;;;;;5036542;28;20208;-77
2022/01/29 03:18:44;;;;;;;3.43;3.23;;;6.40;99.90;;;;;;5054664;28;20268;-75
2022/01/29 03:21:10;;;;;;;1.67;1.63;;;6.40;99.90;;;;;;5055090;28;20288;-75
2022/01/29 03:23:35;;;;;;;2.00;1.83;;;6.30;99.90;;;;;;5054099;28;20227;-75
2022/01/29 03:26:01;;;;;;;5.10;4.50;;;6.30;99.90;;;;;;5023118;28;20181;-75
2022/01/29 03:28:30;;;;;;;4.63;2.60;;;6.30;99.90;;;;;;5054386;28;20250;-75
2022/01/29 03:30:56;;;;;;;1.83;1.73;;;6.30;99.90;;;;;;5054031;28;20315;-76
2022/01/29 03:33:22;;;;;;;2.67;2.33;;;6.30;99.90;;;;;;5036751;28;20209;-75
2022/01/29 03:35:48;;;;;;;3.53;1.63;;;6.30;99.90;;;;;;5037030;28;20192;-75
2022/01/29 03:38:14;;;;;;;3.40;1.40;;;6.30;99.90;;;;;;5054074;28;20546;-75
2022/01/29 03:40:41;;;;;;;1.77;1.73;;;6.30;99.90;;;;;;5054182;28;20180;-76
2022/01/29 03:43:10;;;;;;;0.60;0.60;;;6.30;99.90;;;;;;5053710;28;20355;-76
2022/01/29 03:45:36;;;;;;;0.53;0.53;;;6.30;99.90;;;;;;5088857;22;20641;-77
2022/01/29 03:48:02;;;;;;;4.20;3.40;;;6.30;99.90;;;;;;5073676;28;20180;-78
2022/01/29 03:50:28;;;;;;;3.97;3.67;;;6.30;99.90;;;;;;5073813;28;20184;-78
2022/01/29 03:52:54;;;;;;;1.00;1.00;;;6.20;99.90;;;;;;5073877;28;20191;-77
2022/01/29 03:55:20;;;;;;;5.27;2.97;;;6.20;99.90;;;;;;5058746;28;20224;-78
2022/01/29 03:57:46;;;;;;;3.03;2.83;;;6.20;99.90;;;;;;5052446;28;20223;-78
2022/01/29 04:00:12;;;;;;;2.77;2.57;;;6.20;99.90;;;;;;5035825;28;20181;-77
2022/01/29 04:02:38;;;;;;;5.03;4.57;;;6.20;99.90;;;;;;5035491;28;20181;-78
2022/01/29 04:05:04;;;;;;;6.23;3.67;;;6.10;99.90;;;;;;5053602;28;20205;-77
2022/01/29 04:07:30;;;;;;;3.93;2.43;;;6.10;99.90;;;;;;5052782;28;20178;-77
2022/01/29 04:09:55;;;;;;;2.37;2.17;;;6.10;99.90;;;;;;5035700;28;20271;-78
2022/01/29 04:12:23;;;;;;;2.10;1.93;;;6.10;99.90;;;;;;5053310;28;20232;-76
2022/01/29 04:14:49;;;;;;;2.43;2.07;;;6.10;99.90;;;;;;5053238;28;20989;-77
2022/01/29 04:17:15;;;;;;;2.63;2.43;;;6.10;99.90;;;;;;5053487;28;20648;-76
2022/01/29 04:19:40;;;;;;;2.23;1.10;;;6.10;99.90;;;;;;5053391;28;20180;-76
2022/01/29 04:22:07;;;;;;;2.33;0.67;;;6.10;99.90;;;;;;5053038;28;20184;-76
2022/01/29 04:24:33;;;;;;;2.23;1.67;;;6.10;99.90;;;;;;5053544;28;20198;-76
2022/01/29 04:27:01;;;;;;;3.03;2.20;;;6.10;99.90;;;;;;5046619;28;20184;-76
2022/01/29 04:29:29;;;;;;;2.53;1.17;;;6.20;99.90;;;;;;5073100;28;20184;-75
2022/01/29 04:32:09;;;;;;;2.87;2.50;;;6.20;99.90;;;;;;5042997;28;20208;-76
2022/01/29 04:34:34;;;;;;;16.23;3.23;;;6.10;99.90;;;;;;5052911;28;20203;-76
2022/01/29 04:37:00;;;;;;;2.80;2.60;;;6.10;99.90;;;;;;5035273;28;20177;-75
2022/01/29 04:39:25;;;;;;;2.43;1.37;;;6.10;99.90;;;;;;5053021;28;20177;-74
2022/01/29 04:41:52;;;;;;;1.20;0.80;;;6.10;99.90;;;;;;5052536;28;20205;-75
2022/01/29 04:44:17;;;;;;;0.83;0.83;;;6.00;99.90;;;;;;5052747;28;20296;-74
2022/01/29 04:46:44;;;;;;;2.47;2.27;;;6.00;99.90;;;;;;5052851;28;20259;-76
2022/01/29 04:49:09;;;;;;;2.37;0.97;;;5.90;99.90;;;;;;5052678;28;20188;-75
2022/01/29 04:51:35;;;;;;;4.13;3.93;;;5.90;99.90;;;;;;5034406;28;20212;-75
2022/01/29 04:54:00;;;;;;;6.50;3.47;;;5.90;99.90;;;;;;5034872;28;20207;-75
2022/01/29 04:56:26;;;;;;;1.33;1.33;;;5.90;99.90;;;;;;5052713;28;20216;-76
2022/01/29 04:58:51;;;;;;;1.27;1.27;;;5.90;99.90;;;;;;5052688;28;20207;-77
2022/01/29 05:01:17;;;;;;;1.60;1.50;;;5.90;99.90;;;;;;5052458;28;20212;-76
2022/01/29 05:03:42;;;;;;;4.27;2.13;;;5.90;99.90;;;;;;5034676;28;20734;-77
2022/01/29 05:06:09;;;;;;;1.23;1.23;;;5.90;99.90;;;;;;5047625;28;20553;-78
2022/01/29 05:08:36;;;;;;;0.47;0.47;;;5.90;99.90;;;;;;5052781;28;20706;-77
2022/01/29 05:11:02;;;;;;;1.47;1.17;;;5.90;99.90;;;;;;5065943;28;20196;-77
2022/01/29 05:13:29;;;;;;;0.23;0.23;;;5.90;99.90;;;;;;5072519;28;20545;-78
2022/01/29 05:16:10;;;;;;;1.90;1.40;;;6.00;99.90;;;;;;5073748;28;20231;-77
2022/01/29 05:26:54;;;;;;;3.27;3.10;;;6.00;99.90;;;;;;5063394;28;20195;-77
2022/01/29 05:29:20;;;;;;;4.77;3.03;;;6.00;99.90;;;;;;5055060;28;20688;-78
2022/01/29 05:31:50;;;;;;;1.17;1.17;;;6.00;99.90;;;;;;5052187;28;20209;-76
2022/01/29 05:34:16;;;;;;;1.03;0.90;;;6.00;99.90;;;;;;5052736;28;20189;-78
2022/01/29 05:36:42;;;;;;;4.90;3.13;;;6.10;99.90;;;;;;5052981;28;20177;-78
2022/01/29 05:39:07;;;;;;;0.67;0.67;;;6.10;99.90;;;;;;5052744;28;20441;-77
2022/01/29 05:41:33;;;;;;;0.77;0.77;;;6.10;99.90;;;;;;5053416;28;20294;-77
2022/01/29 05:43:58;;;;;;;1.20;1.03;;;6.10;99.90;;;;;;5052571;28;20723;-77
2022/01/29 05:46:24;;;;;;;3.60;1.73;;;6.10;99.90;;;;;;5054881;28;20192;-77
2022/01/29 05:48:49;;;;;;;1.40;1.30;;;6.10;99.90;;;;;;5035288;28;20180;-78
2022/01/29 05:51:15;;;;;;;0.83;0.83;;;6.10;99.90;;;;;;5034723;28;20675;-78
2022/01/29 05:53:41;;;;;;;1.07;0.93;;;6.10;99.90;;;;;;5034715;28;20180;-77
2022/01/29 05:56:07;;;;;;;1.40;1.33;;;6.10;99.90;;;;;;5053375;28;20204;-77
2022/01/29 05:58:33;;;;;;;0.67;0.67;;;6.10;99.90;;;;;;5052580;28;20260;-77
2022/01/29 06:00:59;;;;;;;1.33;0.93;;;6.10;99.90;;;;;;5034866;28;20188;-78
2022/01/29 06:03:25;;;;;;;1.47;1.33;;;6.10;99.90;;;;;;5057986;28;20196;-77
2022/01/29 06:05:50;;;;;;;0.67;0.57;;;6.10;99.90;;;;;;5033734;28;20706;-78
2022/01/29 06:08:16;;;;;;;0.70;0.70;;;6.10;99.90;;;;;;5054975;28;20574;-77
2022/01/29 06:10:42;;;;;;;1.80;0.70;;;6.10;99.90;;;;;;5071359;28;20242;-76
2022/01/29 06:13:12;;;;;;;1.97;0.90;;;6.10;99.90;;;;;;5071142;28;20177;-76
2022/01/29 06:15:41;;;;;;;0.83;0.83;;;6.20;99.90;;;;;;5053978;28;20192;-79
2022/01/29 06:18:16;;;;;;;1.80;1.10;;;6.10;99.90;;;;;;5073884;28;20263;-80
2022/01/29 06:20:43;;;;;;;1.80;1.10;;;6.10;99.90;;;;;;5056818;28;20651;-78
2022/01/29 06:23:11;;;;;;;3.60;1.63;;;6.20;99.90;;;;;;5073777;28;20179;-79
2022/01/29 06:25:37;;;;;;;1.07;1.07;;;6.20;99.90;;;;;;5046953;28;20193;-78
2022/01/29 06:28:03;;;;;;;1.93;1.80;;;6.20;99.90;;;;;;5041155;28;20177;-78
2022/01/29 06:30:28;;;;;;;0.97;0.97;;;6.20;99.90;;;;;;5054409;28;20177;-79
2022/01/29 06:32:54;;;;;;;0.97;0.60;;;6.30;99.90;;;;;;5053179;28;20674;-79
2022/01/29 06:35:19;;;;;;;0.87;0.87;;;6.20;99.90;;;;;;5035433;28;20224;-78
2022/01/29 06:37:45;;;;;;;0.20;0.20;;;6.30;99.90;;;;;;5051859;28;20235;-75
2022/01/29 06:40:11;;;;;;;2.00;1.43;;;6.30;99.90;;;;;;5051296;28;20180;-76
2022/01/29 06:42:37;;;;;;;2.30;1.63;;;6.40;99.90;;;;;;5050952;28;20177;-77
2022/01/29 06:45:04;;;;;;;0.87;0.87;;;6.40;99.90;;;;;;5050964;28;20714;-77
2022/01/29 06:47:29;;;;;;;2.17;1.97;;;6.40;99.90;;;;;;5051112;28;20182;-75
2022/01/29 06:49:55;;;;;;;0.30;0.30;;;6.50;99.90;;;;;;5036073;28;20187;-77
2022/01/29 06:52:21;;;;;;;0.73;0.67;;;6.50;99.90;;;;;;5054859;28;20222;-78
2022/01/29 06:54:46;;;;;;;5.30;1.80;;;6.50;99.90;;;;;;5055915;28;20451;-78
2022/01/29 06:57:12;;;;;;;0.57;0.57;;;6.50;99.90;;;;;;5055400;28;20696;-78
2022/01/29 06:59:38;;;;;;;0.40;0.40;;;6.50;99.90;;;;;;5068505;28;20230;-78
2022/01/29 07:02:03;;;;;;;0.57;0.57;;;6.60;99.90;;;;;;5074668;28;20258;-77
2022/01/29 07:04:29;;;;;;;0.10;0.10;;;6.60;99.90;;;;;;5074476;28;20238;-78
2022/01/29 07:06:55;;;;;;;1.13;1.13;;;6.70;99.90;;;;;;5075249;28;20184;-77
2022/01/29 07:09:20;;;;;;;0.87;0.87;;;6.70;99.90;;;;;;5074892;28;20180;-78
2022/01/29 07:11:47;;;;;;;2.37;2.27;;;6.70;99.90;;;;;;5074297;28;20239;-77
2022/01/29 07:14:17;;;;;;;2.57;1.13;;;6.70;99.90;;;;;;5074609;28;20215;-77
2022/01/29 07:16:43;;;;;;;3.43;2.80;;;6.80;99.90;;;;;;5057013;28;20176;-76
2022/01/29 07:19:09;;;;;;;1.90;0.73;;;6.80;99.90;;;;;;5074787;28;20177;-78
2022/01/29 07:21:36;;;;;;;1.17;1.07;;;6.80;99.90;;;;;;5074681;28;20176;-78
2022/01/29 07:24:02;;;;;;;16.23;1.90;;;6.90;99.90;;;;;;5073685;28;20676;-75
2022/01/29 07:26:28;;;;;;;2.57;1.90;;;6.90;99.90;;;;;;5041385;28;20184;-76
2022/01/29 07:28:53;;;;;;;0.97;0.97;;;6.90;99.90;;;;;;5054802;28;20186;-78
2022/01/29 07:31:19;;;;;;;1.33;1.33;;;6.90;99.90;;;;;;5032810;28;20677;-75
2022/01/29 07:33:45;;;;;;;0.63;0.63;;;6.90;99.90;;;;;;5047689;28;20177;-77
2022/01/29 07:36:10;;;;;;;2.20;2.10;;;7.00;99.90;;;;;;5054170;28;20223;-76
2022/01/29 07:38:36;;;;;;;1.30;1.03;;;7.00;99.90;;;;;;5054120;28;20184;-78
2022/01/29 07:41:02;;;;;;;0.10;0.10;;;7.00;99.90;;;;;;5036278;28;20181;-77
2022/01/29 07:43:27;;;;;;;0.60;0.60;;;7.00;99.90;;;;;;5053891;28;20181;-76
2022/01/29 07:45:53;;;;;;;0.30;0.30;;;7.00;99.90;;;;;;5035968;28;20790;-77
2022/01/29 07:48:18;;;;;;;0.33;0.33;;;7.00;99.90;;;;;;5053509;28;20181;-78
2022/01/29 07:50:45;;;;;;;0.53;0.53;;;7.10;99.90;;;;;;5053616;28;20576;-77
2022/01/29 07:53:10;;;;;;;5.87;1.17;;;7.10;99.90;;;;;;5043023;28;20170;-77
2022/01/29 07:55:36;;;;;;;1.13;0.80;;;7.10;99.90;;;;;;5059119;28;20200;-77
2022/01/29 07:58:03;;;;;;;0.30;0.30;;;7.10;99.90;;;;;;5054486;28;20548;-78
2022/01/29 08:00:29;;;;;;;1.50;1.13;;;7.20;99.90;;;;;;5035308;28;20177;-78
2022/01/29 08:02:55;;;;;;;1.93;1.83;;;7.20;99.90;;;;;;5035453;28;20679;-78
2022/01/29 08:05:20;;;;;;;1.67;1.33;;;7.20;99.90;;;;;;5053706;28;20203;-78
2022/01/29 08:07:46;;;;;;;0.33;0.33;;;7.30;99.90;;;;;;5053885;28;20200;-78
2022/01/29 08:10:13;;;;;;;1.03;1.03;;;7.30;99.90;;;;;;5078279;28;20194;-81
2022/01/29 08:12:38;;;;;;;1.10;1.10;;;7.30;99.90;;;;;;5078798;28;20329;-80
2022/01/29 08:15:05;;;;;;;0.73;0.60;;;7.40;99.90;;;;;;5058872;28;20703;-79
2022/01/29 08:17:31;;;;;;;0.33;0.33;;;7.30;99.90;;;;;;5076969;28;20180;-79
2022/01/29 08:19:57;;;;;;;8.60;2.50;;;7.40;99.90;;;;;;5072075;28;20198;-81
2022/01/29 08:22:24;;;;;;;1.37;1.03;;;7.40;99.90;;;;;;5056382;28;20541;-80
2022/01/29 08:24:50;;;;;;;1.20;1.10;;;7.40;99.90;;;;;;5054460;28;20197;-78
2022/01/29 08:27:16;;;;;;;0.97;0.97;;;7.40;99.90;;;;;;5054106;28;20181;-78
2022/01/29 08:29:41;;;;;;;0.30;0.30;;;7.40;99.90;;;;;;5067723;28;20307;-78
2022/01/29 08:32:07;;;;;;;1.33;1.23;;;7.50;99.90;;;;;;5067032;28;20686;-77
2022/01/29 08:34:33;;;;;;;0.57;0.57;;;7.50;99.90;;;;;;5029676;28;20201;-78
2022/01/29 08:37:01;;;;;;;0.83;0.73;;;7.50;99.90;;;;;;5073781;28;20196;-78
2022/01/29 08:39:27;;;;;;;1.10;1.00;;;7.60;99.90;;;;;;5049089;28;20200;-77
2022/01/29 08:41:53;;;;;;;3.13;1.23;;;7.60;99.90;;;;;;5055089;28;20211;-79
2022/01/29 08:44:18;;;;;;;1.77;1.67;;;7.60;99.90;;;;;;5054407;28;20270;-76
2022/01/29 08:46:44;;;;;;;0.37;0.37;;;7.60;99.90;;;;;;5053074;28;20675;-76
2022/01/29 08:49:09;;;;;;;0.70;0.43;;;7.70;99.90;;;;;;5035898;28;20234;-78
2022/01/29 08:51:35;;;;;;;1.00;0.97;;;7.70;99.90;;;;;;5035269;28;20212;-78
2022/01/29 08:54:01;;;;;;;0.20;0.20;;;7.70;99.90;;;;;;5053649;28;20615;-79
2022/01/29 08:56:27;;;;;;;1.20;1.20;;;7.70;99.90;;;;;;5042266;28;20627;-78
2022/01/29 08:58:52;;;;;;;2.57;0.97;;;7.80;99.90;;;;;;5053025;28;20452;-78
2022/01/29 09:01:18;;;;;;;7.07;1.60;;;7.80;99.90;;;;;;5052585;28;20176;-76
2022/01/29 09:03:43;;;;;;;0.70;0.70;;;7.80;99.90;;;;;;5053176;28;20200;-78
2022/01/29 09:06:10;;;;;;;1.80;1.60;;;7.90;99.90;;;;;;5053966;28;20311;-78
2022/01/29 09:08:36;;;;;;;3.10;1.47;;;7.90;99.90;;;;;;5037383;28;20253;-79
2022/01/29 09:11:02;;;;;;;1.90;1.17;;;7.90;99.90;;;;;;5057166;28;20330;-78
2022/01/29 09:13:28;;;;;;;1.20;0.53;;;7.90;99.90;;;;;;5055502;28;20180;-77
2022/01/29 09:15:54;;;;;;;1.47;0.53;;;7.90;99.90;;;;;;5035341;28;20205;-77
2022/01/29 09:18:20;;;;;;;0.93;0.93;;;8.00;99.90;;;;;;5053358;28;20173;-78
2022/01/29 09:20:46;;;;;;;2.23;1.37;;;8.10;99.90;;;;;;5035997;28;20274;-77
2022/01/29 09:23:12;;;;;;;0.57;0.57;;;8.10;99.90;;;;;;5053131;28;20243;-77
2022/01/29 09:25:38;;;;;;;0.40;0.40;;;8.20;99.90;;;;;;5054074;28;20201;-78
2022/01/29 09:28:08;;;;;;;0.23;0.23;;;8.10;99.90;;;;;;5073914;28;20172;-78
2022/01/29 09:30:34;;;;;;;0.97;0.97;;;8.30;99.90;;;;;;5073045;28;20184;-78
2022/01/29 09:33:00;;;;;;;0.67;0.67;;;8.40;99.90;;;;;;5060983;28;20547;-79
2022/01/29 09:35:27;;;;;;;1.90;1.60;;;8.40;99.90;;;;;;5075123;28;20200;-78
2022/01/29 09:37:53;;;;;;;2.77;1.90;;;8.50;99.90;;;;;;5074144;28;20179;-78
2022/01/29 09:40:19;;;;;;;0.20;0.20;;;8.60;99.90;;;;;;5074138;28;20180;-78
2022/01/29 09:42:47;;;;;;;1.00;1.00;;;8.70;99.90;;;;;;5075258;28;20210;-77
2022/01/29 09:45:14;;;;;;;0.73;0.73;;;8.70;99.90;;;;;;5075988;22;20327;-77
2022/01/29 09:47:45;;;;;;;0.10;0.10;;;8.80;99.90;;;;;;5035439;28;20173;-77
2022/01/29 09:50:13;;;;;;;1.23;0.93;;;9.10;99.90;;;;;;5052553;28;20176;-78
2022/01/29 09:52:39;;;;;;;0.70;0.70;;;9.10;99.90;;;;;;5034483;28;20209;-78
2022/01/29 09:55:06;;;;;;;0.93;0.60;;;9.10;99.90;;;;;;5035379;28;20691;-78
2022/01/29 09:57:32;;;;;;;0.47;0.47;;;9.00;99.90;;;;;;5044736;28;20185;-78
2022/01/29 09:59:58;;;;;;;0.30;0.30;;;9.10;99.90;;;;;;5035106;28;20217;-77
2022/01/29 10:02:24;;;;;;;0.10;0.10;;;9.30;99.90;;;;;;5052388;28;20216;-78
2022/01/29 10:04:55;;;;;;;0.23;0.23;;;9.40;99.90;;;;;;5039529;28;20247;-77
2022/01/29 10:07:24;;;;;;;1.33;0.83;;;9.50;99.90;;;;;;5052631;28;20169;-78
2022/01/29 10:09:50;;;;;;;1.17;1.10;;;9.50;99.90;;;;;;5052478;28;20181;-77
2022/01/29 10:12:21;;;;;;;0.50;0.50;;;9.40;99.90;;;;;;5052562;28;20212;-77
2022/01/29 10:14:58;;;;;;;0.63;0.63;;;9.20;99.90;;;;;;5053202;28;20201;-77
2022/01/29 10:17:44;;;;;;;0.30;0.20;;;9.30;99.90;;;;;;5034647;28;20180;-77
2022/01/29 10:20:30;;;;;;;0.30;0.30;;;9.20;99.90;;;;;;5035108;28;20169;-77
2022/01/29 10:22:58;;;;;;;0.30;0.30;;;9.50;99.90;;;;;;5051168;28;20660;-77
2022/01/29 10:25:27;;;;;;;0.00;0.00;;;9.50;99.90;;;;;;5023708;28;20304;-76
2022/01/29 10:28:21;;;;;;;0.50;0.50;;;9.60;99.90;;;;;;5051291;28;20267;-76
2022/01/29 10:30:49;;;;;;;0.10;0.10;;;9.50;99.90;;;;;;5034675;28;20675;-76
2022/01/29 10:33:29;;;;;;;0.10;0.10;;;9.70;99.90;;;;;;5034064;28;20183;-79
2022/01/29 10:36:08;;;;;;;0.17;0.17;;;9.60;99.90;;;;;;5035003;28;20194;-78
2022/01/29 10:38:39;;;;;;;0.10;0.10;;;9.60;99.90;;;;;;5045411;28;20173;-78
2022/01/29 10:41:26;;;;;;;0.27;0.27;;;9.60;99.90;;;;;;5034486;28;20674;-77
2022/01/29 10:43:55;;;;;;;1.27;0.77;;;9.70;99.90;;;;;;5052560;28;20231;-78
2022/01/29 10:46:28;;;;;;;0.20;0.20;;;9.70;99.90;;;;;;5034645;28;20587;-76
2022/01/29 10:48:53;;;;;;;0.20;0.20;;;9.70;99.90;;;;;;5052458;28;20196;-76
2022/01/29 10:51:19;;;;;;;0.20;0.20;;;9.90;99.90;;;;;;5052071;28;20200;-75
2022/01/29 10:53:45;;;;;;;0.10;0.10;;;10.00;99.90;;;;;;5034429;28;20181;-76
2022/01/29 10:56:10;;;;;;;0.20;0.20;;;10.10;99.90;;;;;;5034329;28;20197;-76
2022/01/29 10:58:43;;;;;;;0.17;0.17;;;10.30;99.90;;;;;;5047574;28;20174;-76
2022/01/29 11:01:24;;;;;;;0.83;0.83;;;10.30;99.90;;;;;;5027560;28;20169;-80
2022/01/29 11:03:53;;;;;;;0.47;0.47;;;10.00;99.90;;;;;;5052143;28;20234;-78
2022/01/29 11:06:22;;;;;;;0.10;0.10;;;10.00;99.90;;;;;;5035130;28;20200;-77
2022/01/29 11:08:48;;;;;;;0.00;0.00;;;9.90;99.90;;;;;;5033849;28;20181;-77
2022/01/29 11:11:15;;;;;;;1.30;0.93;;;9.80;99.90;;;;;;5052018;28;20686;-77
2022/01/29 11:13:45;;;;;;;0.00;0.00;;;9.70;99.90;;;;;;5051640;28;20169;-77
2022/01/29 11:16:12;;;;;;;0.00;0.00;;;9.70;99.90;;;;;;5050935;28;20189;-78
2022/01/29 11:18:37;;;;;;;0.37;0.37;;;9.70;99.90;;;;;;5034169;28;20188;-78
2022/01/29 11:21:04;;;;;;;0.27;0.27;;;9.70;99.90;;;;;;5034159;28;20189;-78
2022/01/29 11:23:31;;;;;;;0.13;0.07;;;9.60;99.90;;;;;;5033886;28;20177;-77
2022/01/29 11:25:59;;;;;;;0.10;0.10;;;9.50;99.90;;;;;;5038185;28;20206;-77
2022/01/29 11:28:27;;;;;;;2.47;1.30;;;9.50;99.90;;;;;;5033808;28;20644;-77
2022/01/29 11:31:13;;;;;;;0.10;0.10;;;9.50;99.90;;;;;;5029665;28;20212;-77
2022/01/29 11:33:59;;;;;;;0.37;0.37;;;9.40;99.90;;;;;;5032937;28;20173;-77
2022/01/29 11:36:56;;;;;;;0.00;0.00;;;9.40;99.90;;;;;;5021745;28;20185;-77
2022/01/29 11:39:28;;;;;;;0.30;0.30;;;9.40;99.90;;;;;;5021209;28;20212;-76
2022/01/29 11:42:13;;;;;;;0.23;0.23;;;9.40;99.90;;;;;;5037449;28;20291;-77
2022/01/29 11:44:40;;;;;;;0.10;0.10;;;9.40;99.90;;;;;;5027289;28;20224;-77
2022/01/29 11:47:26;;;;;;;0.10;0.10;;;9.40;99.90;;;;;;5037800;28;20181;-77
2022/01/29 11:50:13;;;;;;;0.27;0.17;;;9.30;99.90;;;;;;5054539;28;20235;-78
2022/01/29 11:52:58;;;;;;;0.63;0.63;;;9.30;99.90;;;;;;5045476;28;20584;-76
2022/01/29 11:55:41;;;;;;;1.13;0.30;;;9.30;99.90;;;;;;5038343;28;20287;-77
2022/01/29 11:58:13;;;;;;;0.10;0.10;;;9.30;99.90;;;;;;5054571;28;20184;-75
2022/01/29 12:00:39;;;;;;;0.00;0.00;;;9.30;99.90;;;;;;5054800;28;20445;-77
2022/01/29 12:03:06;;;;;;;1.10;1.00;;;9.40;99.90;;;;;;5035951;28;20178;-77
2022/01/29 12:09:06;;;;;;;2.00;0.67;;;9.70;99.90;;;;;;5028508;28;20184;-77
2022/01/29 12:11:41;;;;;;;0.27;0.27;;;9.80;99.90;;;;;;5019132;28;20228;-77
2022/01/29 12:14:12;;;;;;;2.07;0.43;;;10.10;99.90;;;;;;5045872;28;20210;-77
2022/01/29 12:17:02;;;;;;;0.10;0.10;;;10.30;99.90;;;;;;5054478;28;20205;-77
2022/01/29 12:19:38;;;;;;;0.30;0.30;;;10.70;99.90;;;;;;5037836;28;20736;-77
2022/01/29 12:22:10;;;;;;;0.00;0.00;;;10.80;99.90;;;;;;5056155;28;20247;-78
2022/01/29 12:24:36;;;;;;;0.57;0.37;;;10.80;99.90;;;;;;5036497;28;20685;-77
2022/01/29 12:27:02;;;;;;;0.13;0.13;;;10.70;99.90;;;;;;5045798;28;20757;-78
2022/01/29 12:29:28;;;;;;;0.30;0.30;;;10.50;99.90;;;;;;5054354;28;20264;-77
2022/01/29 12:31:56;;;;;;;0.30;0.30;;;10.50;99.90;;;;;;5041646;28;20205;-78
2022/01/29 12:34:21;;;;;;;0.23;0.23;;;10.70;99.90;;;;;;5047688;28;20681;-77
2022/01/29 12:36:47;;;;;;;0.20;0.20;;;10.60;99.90;;;;;;5045782;28;20173;-79
2022/01/29 12:39:22;;;;;;;0.10;0.10;;;10.40;99.90;;;;;;5049786;28;20245;-78
2022/01/29 12:44:43;;;;;;;0.33;0.33;;;10.60;99.90;;;;;;5032817;28;20316;-78
2022/01/29 12:47:26;;;;;;;0.03;0.03;;;10.50;99.90;;;;;;5053528;28;20182;-77
2022/01/29 12:49:52;;;;;;;0.10;0.10;;;10.30;99.90;;;;;;5024258;28;20245;-77
2022/01/29 12:52:18;;;;;;;0.20;0.20;;;10.20;99.90;;;;;;5052272;28;20337;-77
2022/01/29 12:55:01;;;;;;;0.70;0.70;;;10.10;99.90;;;;;;5053787;28;20192;-78
2022/01/29 12:57:46;;;;;;;0.10;0.10;;;10.20;99.90;;;;;;5045370;28;20208;-78
2022/01/29 13:00:19;;;;;;;0.17;0.17;;;10.10;99.90;;;;;;5033423;28;20247;-77
2022/01/29 13:02:45;;;;;;;0.73;0.73;;;10.00;99.90;;;;;;5044877;28;20180;-77
2022/01/29 13:05:12;;;;;;;0.10;0.10;;;10.00;99.90;;;;;;5053369;28;20213;-78
2022/01/29 13:07:44;;;;;;;0.20;0.17;;;10.10;99.90;;;;;;5053553;28;20180;-76
2022/01/29 13:10:12;;;;;;;0.10;0.10;;;10.30;99.90;;;;;;5039827;28;20188;-78
2022/01/29 13:12:42;;;;;;;0.27;0.17;;;10.50;99.90;;;;;;5022439;28;20215;-77